createdAt,value
2024-04-08T00:01:28.620Z,87.46
2024-04-08T00:06:31.596Z,87.12
2024-04-08T00:11:35.368Z,87.43
2024-04-08T00:16:38.469Z,87.98
2024-04-08T00:21:41.638Z,88.15
2024-04-08T00:26:44.571Z,88.41
2024-04-08T00:31:53.928Z,88.63
2024-04-08T00:36:56.951Z,88.83
2024-04-08T00:42:00.155Z,89.08
2024-04-08T00:47:03.935Z,89.93
2024-04-08T00:52:06.555Z,90.46
2024-04-08T00:57:10.485Z,90.54
2024-04-08T01:02:13.369Z,90.76
2024-04-08T01:07:17.417Z,90.37
2024-04-08T01:12:20.692Z,89.34
2024-04-08T01:17:23.742Z,89.64
2024-04-08T01:22:31.689Z,87.99
2024-04-08T01:27:34.745Z,87.52
2024-04-08T01:32:37.675Z,86.82
2024-04-08T01:37:40.251Z,85.73
2024-04-08T01:42:44.258Z,85.65
2024-04-08T01:47:46.921Z,87.31
2024-04-08T01:52:50.118Z,86.93
2024-04-08T01:57:55.488Z,87.94
2024-04-08T02:02:59.752Z,87.87
2024-04-08T02:08:03.715Z,88.01
2024-04-08T02:13:06.650Z,88.37
2024-04-08T02:18:10.164Z,88.33
2024-04-08T02:23:13.074Z,88.09
2024-04-08T02:28:15.861Z,88.45
2024-04-08T02:33:18.661Z,89.12
2024-04-08T02:38:23.983Z,89.15
2024-04-08T02:43:26.551Z,90.06
2024-04-08T02:48:29.263Z,92.12
2024-04-08T02:53:32.127Z,92.53
2024-04-08T02:58:35.243Z,93.27
2024-04-08T03:03:38.209Z,94.24
2024-04-08T03:08:41.862Z,94.24
2024-04-08T03:13:44.330Z,94.81
2024-04-08T03:18:47.343Z,94.38
2024-04-08T03:23:49.945Z,94.61
2024-04-08T03:28:53.227Z,94.72
2024-04-08T03:33:55.874Z,93.94
2024-04-08T03:38:59.102Z,94.10
2024-04-08T03:44:02.274Z,94.08
2024-04-08T03:49:04.755Z,94.45
2024-04-08T03:54:07.630Z,94.93
2024-04-08T03:59:10.258Z,94.44
2024-04-08T04:04:13.576Z,94.57
2024-04-08T04:09:16.193Z,95.36
2024-04-08T04:14:18.798Z,94.74
2024-04-08T04:19:21.467Z,94.76
2024-04-08T04:24:24.476Z,94.83
2024-04-08T04:29:28.708Z,95.15
2024-04-08T04:34:31.647Z,95.05
2024-04-08T04:39:34.899Z,95.65
2024-04-08T04:44:38.287Z,95.07
2024-04-08T04:49:41.784Z,96.20
2024-04-08T04:54:45.294Z,96.28
2024-04-08T04:59:48.209Z,96.08
2024-04-08T05:04:51.564Z,97.39
2024-04-08T05:09:55.050Z,97.83
2024-04-08T05:14:58.043Z,99.29
2024-04-08T05:20:03.447Z,98.31
2024-04-08T05:25:06.187Z,99.63
2024-04-08T05:30:09.581Z,99.78
2024-04-08T05:35:13.532Z,100.00
2024-04-08T05:40:18.986Z,100.00
2024-04-08T05:45:22.701Z,100.00
2024-04-08T05:50:25.729Z,100.00
2024-04-08T05:55:32.613Z,100.00
2024-04-08T06:00:38.058Z,100.00
2024-04-08T06:05:45.290Z,100.00
2024-04-08T06:10:52.391Z,100.00
2024-04-08T06:15:55.393Z,100.00
2024-04-08T06:21:00.310Z,100.00
2024-04-08T06:26:04.261Z,100.00
2024-04-08T06:31:06.830Z,100.00
2024-04-08T06:36:10.885Z,100.00
2024-04-08T06:41:14.769Z,100.00
2024-04-08T06:46:22.691Z,100.00
2024-04-08T06:51:26.063Z,100.00
2024-04-08T06:56:29.372Z,100.00
2024-04-08T07:01:37.185Z,100.00
2024-04-08T07:06:40.130Z,100.00
2024-04-08T07:11:43.806Z,100.00
2024-04-08T07:16:48.290Z,100.00
2024-04-08T07:21:54.021Z,100.00
2024-04-08T07:27:03.148Z,100.00
2024-04-08T07:32:08.888Z,100.00
2024-04-08T07:37:13.116Z,100.00
2024-04-08T07:42:16.158Z,100.00
2024-04-08T07:47:19.033Z,100.00
2024-04-08T07:52:21.977Z,100.00
2024-04-08T07:57:25.497Z,99.05
2024-04-08T08:02:31.354Z,98.61
2024-04-08T08:07:39.369Z,97.09
2024-04-08T08:12:42.393Z,94.62
2024-04-08T08:17:46.088Z,88.74
2024-04-08T08:22:50.620Z,84.37
2024-04-08T08:27:53.484Z,83.33
2024-04-08T08:32:59.052Z,78.06
2024-04-08T08:38:03.142Z,74.08
2024-04-08T08:43:06.167Z,68.36
2024-04-08T08:48:13.229Z,58.63
2024-04-08T08:53:16.250Z,58.07
2024-04-08T08:58:18.898Z,51.66
2024-04-08T09:03:21.608Z,45.06
2024-04-08T09:08:24.988Z,45.00
2024-04-08T09:13:34.156Z,44.50
2024-04-08T09:18:37.577Z,44.54
2024-04-08T09:23:45.323Z,45.04
2024-04-08T09:28:48.303Z,42.98
2024-04-08T09:33:51.451Z,43.12
2024-04-08T09:38:54.211Z,39.93
2024-04-08T09:43:58.231Z,40.90
2024-04-08T09:49:03.691Z,34.52
2024-04-08T09:54:11.461Z,33.09
2024-04-08T09:59:15.522Z,31.73
2024-04-08T10:04:21.417Z,30.46
2024-04-08T10:09:24.130Z,31.42
2024-04-08T10:14:27.089Z,29.29
2024-04-08T10:19:30.135Z,30.72
2024-04-08T10:24:39.915Z,28.70
2024-04-08T10:29:45.083Z,27.92
2024-04-08T10:34:51.799Z,28.30
2024-04-08T10:39:59.530Z,27.98
2024-04-08T10:45:03.468Z,28.78
2024-04-08T10:50:07.527Z,28.20
2024-04-08T10:55:10.629Z,28.56
2024-04-08T11:00:14.101Z,28.82
2024-04-08T11:05:18.170Z,28.84
2024-04-08T11:10:25.099Z,29.64
2024-04-08T11:15:28.691Z,30.64
2024-04-08T11:20:33.635Z,31.78
2024-04-08T11:25:36.315Z,32.52
2024-04-08T11:30:39.213Z,32.17
2024-04-08T11:35:42.209Z,34.44
2024-04-08T11:40:45.835Z,38.36
2024-04-08T11:45:51.952Z,40.33
2024-04-08T11:50:54.630Z,42.93
2024-04-08T11:55:57.509Z,42.49
2024-04-08T12:01:00.685Z,45.14
2024-04-08T12:06:05.032Z,46.45
2024-04-08T12:11:09.083Z,46.19
2024-04-08T12:16:11.952Z,46.27
2024-04-08T12:21:14.619Z,45.93
2024-04-08T12:26:18.641Z,46.51
2024-04-08T12:31:29.533Z,46.53
2024-04-08T12:36:34.098Z,47.80
2024-04-08T12:41:39.184Z,49.21
2024-04-08T12:46:43.257Z,49.36
2024-04-08T12:51:48.332Z,49.96
2024-04-08T12:56:53.517Z,50.63
2024-04-08T13:01:56.410Z,52.66
2024-04-08T13:06:59.430Z,53.31
2024-04-08T13:12:02.885Z,60.85
2024-04-08T13:17:06.357Z,59.96
2024-04-08T13:22:09.726Z,63.31
2024-04-08T13:27:14.269Z,63.30
2024-04-08T13:32:17.171Z,65.09
2024-04-08T13:37:19.742Z,62.56
2024-04-08T13:42:24.895Z,61.82
2024-04-08T13:47:29.909Z,60.86
2024-04-08T13:52:32.601Z,61.49
2024-04-08T13:57:40.273Z,61.65
2024-04-08T14:02:43.240Z,62.85
2024-04-08T14:07:49.014Z,62.90
2024-04-08T14:12:52.563Z,62.66
2024-04-08T14:17:56.337Z,61.24
2024-04-08T14:23:01.543Z,62.62
2024-04-08T14:28:04.245Z,62.67
2024-04-08T14:33:07.469Z,64.12
2024-04-08T14:38:32.319Z,65.61
2024-04-08T14:43:43.397Z,67.21
2024-04-08T14:48:50.825Z,66.35
2024-04-08T14:53:54.715Z,68.32
2024-04-08T14:58:58.084Z,67.78
2024-04-08T15:04:00.882Z,69.00
2024-04-08T15:09:04.531Z,67.71
2024-04-08T15:14:08.863Z,67.38
2024-04-08T15:19:11.825Z,68.62
2024-04-08T15:24:16.403Z,67.29
2024-04-08T15:29:21.958Z,65.64
2024-04-08T15:34:24.805Z,66.17
2024-04-08T15:39:28.542Z,66.79
2024-04-08T15:44:31.517Z,66.88
2024-04-08T15:49:34.148Z,68.11
2024-04-08T15:54:38.635Z,66.24
2024-04-08T15:59:41.320Z,57.96
2024-04-08T16:04:44.368Z,54.49
2024-04-08T16:09:47.348Z,55.61
2024-04-08T16:14:50.138Z,55.15
2024-04-08T16:19:52.865Z,55.31
2024-04-08T16:24:56.254Z,54.77
2024-04-08T16:29:59.710Z,55.78
2024-04-08T16:35:02.278Z,58.38
2024-04-08T16:40:06.706Z,58.41
2024-04-08T16:45:09.375Z,58.60
2024-04-08T16:50:11.770Z,59.50
2024-04-08T16:55:18.404Z,57.88
2024-04-08T17:00:21.238Z,58.12
2024-04-08T17:05:25.334Z,56.46
2024-04-08T17:10:28.573Z,58.66
2024-04-08T17:15:32.210Z,63.66
2024-04-08T17:20:35.022Z,70.77
2024-04-08T17:25:38.798Z,73.08
2024-04-08T17:30:44.375Z,76.96
2024-04-08T17:35:54.021Z,78.56
2024-04-08T17:41:00.489Z,79.42
2024-04-08T17:46:06.990Z,77.30
2024-04-08T17:51:10.755Z,74.84
2024-04-08T17:56:17.745Z,77.15
2024-04-08T18:01:20.579Z,77.02
2024-04-08T18:06:28.043Z,75.75
2024-04-08T18:11:31.339Z,69.24
2024-04-08T18:16:37.403Z,65.12
2024-04-08T18:21:42.750Z,63.40
2024-04-08T18:26:46.604Z,63.09
2024-04-08T18:31:53.070Z,62.09
2024-04-08T18:36:56.144Z,64.10
2024-04-08T18:41:59.310Z,63.15
2024-04-08T18:47:04.761Z,64.69
2024-04-08T18:52:10.324Z,62.63
2024-04-08T18:57:14.201Z,61.00
2024-04-08T19:02:17.813Z,59.65
2024-04-08T19:07:22.662Z,58.57
2024-04-08T19:12:25.625Z,57.46
2024-04-08T19:17:29.127Z,57.46
2024-04-08T19:22:32.247Z,55.39
2024-04-08T19:27:35.512Z,56.30
2024-04-08T19:32:38.202Z,57.43
2024-04-08T19:37:43.025Z,57.04
2024-04-08T19:42:49.714Z,56.81
2024-04-08T19:47:53.227Z,58.84
2024-04-08T19:52:56.973Z,58.02
2024-04-08T19:58:01.617Z,57.55
2024-04-08T20:03:04.939Z,57.56
2024-04-08T20:08:11.332Z,56.94
2024-04-08T20:13:15.102Z,55.37
2024-04-08T20:18:17.975Z,55.79
2024-04-08T20:23:20.940Z,55.15
2024-04-08T20:28:24.234Z,55.88
2024-04-08T20:33:27.718Z,54.22
2024-04-08T20:38:32.750Z,54.11
2024-04-08T20:43:37.372Z,54.50
2024-04-08T20:48:42.362Z,55.06
2024-04-08T20:53:47.303Z,56.14
2024-04-08T20:58:51.363Z,56.22
2024-04-08T21:03:54.523Z,56.56
2024-04-08T21:08:57.309Z,56.58
2024-04-08T21:13:59.938Z,56.52
2024-04-08T21:19:02.862Z,56.72
2024-04-08T21:24:10.348Z,56.67
2024-04-08T21:29:16.432Z,56.40
2024-04-08T21:34:19.307Z,56.39
2024-04-08T21:39:22.645Z,56.61
2024-04-08T21:44:26.395Z,56.59
2024-04-08T21:49:29.852Z,56.98
2024-04-08T21:54:33.824Z,56.45
2024-04-08T21:59:37.816Z,57.86
2024-04-08T22:04:40.800Z,57.07
2024-04-08T22:09:44.298Z,57.95
2024-04-08T22:14:47.112Z,57.23
2024-04-08T22:19:49.980Z,55.97
2024-04-08T22:24:52.982Z,56.63
2024-04-08T22:29:58.918Z,56.51
2024-04-08T22:35:03.387Z,57.26
2024-04-08T22:40:06.787Z,57.92
2024-04-08T22:45:09.706Z,58.42
2024-04-08T22:50:12.549Z,59.53
2024-04-08T22:55:16.132Z,59.52
2024-04-08T23:00:18.880Z,59.72
2024-04-08T23:05:22.155Z,59.81
2024-04-08T23:10:24.794Z,59.10
2024-04-08T23:15:27.776Z,59.08
2024-04-08T23:20:34.546Z,58.93
2024-04-08T23:25:38.008Z,58.65
2024-04-08T23:30:40.518Z,58.46
2024-04-08T23:35:44.741Z,58.80
2024-04-08T23:40:47.198Z,58.66
2024-04-08T23:45:56.307Z,59.25
2024-04-08T23:51:00.073Z,59.46
2024-04-08T23:56:03.292Z,59.91
